sim
Sign-in with your pilot id or email,
or register
Callsign
Passwort

Schedule Details

Flight Number: DLH2661 (2)
Departure: Palma de Mallorca Airport (LEPA) at 11:35
Arrival: Munich Airport (EDDM) at 13:45
Route: Lufthansa Passenger Schedule. Enter filed route here before submitting Pirep.

Weather Information
Getting current METAR information for LEPA 240330Z 03003KT 9999 SCT015 20/19 Q1012 NOSIG
Getting current METAR information for EDDM 240350Z VRB01KT CAVOK 10/10 Q1009 NOSIG

Schedule Frequency

Route Map